Airport ID:KCCB
Update Time (UTC):12/12/2018 17:24
Wind Speed (Knots):2
Wind Direction (Magnetic):170
Temperature (°C):12.5
Dew Point (°C):7.4
Humidity (%):70.5
Altimeter (inHg):30.12
Density Altitude (Feet):
Visibility (Miles):6
Clouds (Hundreds of feet):CLR
Present Weather:HZ
METAR:METAR KCCB 121720Z AUTO 00000KT 6SM HZ CLR 13/07 A3012 RMK AO2

The data displayed is for advisory purposes only and is not to be used for flight planning or operations.

This page is not automatically refreshed. Reload the page to see current data.